createdAt,value
2019-02-21T00:00:04.614Z,1018.50
2019-02-21T00:01:04.647Z,1018.49
2019-02-21T00:02:04.576Z,1018.53
2019-02-21T00:03:04.560Z,1018.55
2019-02-21T00:04:04.564Z,1018.50
2019-02-21T00:05:04.552Z,1018.48
2019-02-21T00:06:04.561Z,1018.52
2019-02-21T00:07:04.524Z,1018.49
2019-02-21T00:08:04.531Z,1018.53
2019-02-21T00:09:04.496Z,1018.53
2019-02-21T00:10:04.490Z,1018.55
2019-02-21T00:11:04.482Z,1018.61
2019-02-21T00:12:04.486Z,1018.55
2019-02-21T00:13:04.453Z,1018.58
2019-02-21T00:14:04.439Z,1018.59
2019-02-21T00:15:04.492Z,1018.58
2019-02-21T00:16:04.419Z,1018.58
2019-02-21T00:17:04.428Z,1018.55
2019-02-21T00:18:04.599Z,1018.59
2019-02-21T00:19:04.615Z,1018.56
2019-02-21T00:20:04.388Z,1018.59
2019-02-21T00:21:04.358Z,1018.51
2019-02-21T00:22:04.353Z,1018.63
2019-02-21T00:23:04.363Z,1018.60
2019-02-21T00:24:04.337Z,1018.58
2019-02-21T00:25:04.328Z,1018.50
2019-02-21T00:26:04.303Z,1018.50
2019-02-21T00:27:04.302Z,1018.52
2019-02-21T00:28:04.290Z,1018.53
2019-02-21T00:29:04.299Z,1018.58
2019-02-21T00:30:04.277Z,1018.50
2019-02-21T00:31:04.261Z,1018.49
2019-02-21T00:32:04.238Z,1018.51
2019-02-21T00:33:04.231Z,1018.55
2019-02-21T00:34:04.244Z,1018.47
2019-02-21T00:35:04.261Z,1018.62
2019-02-21T00:36:04.208Z,1018.47
2019-02-21T00:37:04.190Z,1018.46
2019-02-21T00:38:04.175Z,1018.39
2019-02-21T00:39:04.159Z,1018.45
2019-02-21T00:40:04.179Z,1018.45
2019-02-21T00:41:04.146Z,1018.48
2019-02-21T00:42:04.136Z,1018.45
2019-02-21T00:43:04.129Z,1018.48
2019-02-21T00:44:04.112Z,1018.49
2019-02-21T00:45:04.267Z,1018.44
2019-02-21T00:46:04.098Z,1018.56
2019-02-21T00:47:04.092Z,1018.37
2019-02-21T00:48:04.062Z,1018.43
2019-02-21T00:49:04.064Z,1018.55
2019-02-21T00:50:04.051Z,1018.40
2019-02-21T00:51:04.052Z,1018.48
2019-02-21T00:52:04.040Z,1018.49
2019-02-21T00:53:04.017Z,1018.43
2019-02-21T00:54:04.011Z,1018.47
2019-02-21T00:55:04.008Z,1018.50
2019-02-21T00:56:03.972Z,1018.53
2019-02-21T00:57:03.985Z,1018.61
2019-02-21T00:58:03.967Z,1018.45
2019-02-21T00:59:03.955Z,1018.42
2019-02-21T01:00:03.932Z,1018.59
2019-02-21T01:01:03.938Z,1018.52
2019-02-21T01:02:03.905Z,1018.48
2019-02-21T01:03:03.922Z,1018.46
2019-02-21T01:04:03.896Z,1018.42
2019-02-21T01:05:03.894Z,1018.48
2019-02-21T01:06:03.870Z,1018.40
2019-02-21T01:07:03.859Z,1018.43
2019-02-21T01:08:03.851Z,1018.43
2019-02-21T01:09:03.859Z,1018.42
2019-02-21T01:10:03.821Z,1018.47
2019-02-21T01:11:03.818Z,1018.45
2019-02-21T01:12:03.832Z,1018.43
2019-02-21T01:13:03.843Z,1018.49
2019-02-21T01:14:03.781Z,1018.54
2019-02-21T01:15:03.803Z,1018.45
2019-02-21T01:16:03.774Z,1018.57
2019-02-21T01:17:03.753Z,1018.47
2019-02-21T01:18:03.743Z,1018.44
2019-02-21T01:19:03.732Z,1018.53
2019-02-21T01:20:03.733Z,1018.52
2019-02-21T01:21:03.735Z,1018.42
2019-02-21T01:22:03.710Z,1018.41
2019-02-21T01:23:03.685Z,1018.37
2019-02-21T01:24:04.989Z,1018.36
2019-02-21T01:25:03.659Z,1018.33
2019-02-21T01:26:03.658Z,1018.35
2019-02-21T01:27:03.660Z,1018.33
2019-02-21T01:28:03.643Z,1018.35
2019-02-21T01:29:03.610Z,1018.33
2019-02-21T01:30:03.611Z,1018.34
2019-02-21T01:31:03.611Z,1018.30
2019-02-21T01:32:03.611Z,1018.32
2019-02-21T01:33:03.587Z,1018.39
2019-02-21T01:34:03.559Z,1018.33
2019-02-21T01:35:03.554Z,1018.38
2019-02-21T01:36:03.543Z,1018.36
2019-02-21T01:37:03.540Z,1018.33
2019-02-21T01:38:03.547Z,1018.31
2019-02-21T01:39:03.546Z,1018.34
2019-02-21T01:40:03.498Z,1018.40
2019-02-21T01:41:03.566Z,1018.32
2019-02-21T01:42:03.474Z,1018.35
2019-02-21T01:43:03.513Z,1018.31
2019-02-21T01:44:04.655Z,1018.34
2019-02-21T01:45:03.457Z,1018.35
2019-02-21T01:46:03.443Z,1018.36
2019-02-21T01:47:03.415Z,1018.33
2019-02-21T01:48:03.425Z,1018.28
2019-02-21T01:49:03.457Z,1018.33
2019-02-21T01:50:03.401Z,1018.44
2019-02-21T01:51:03.398Z,1018.28
2019-02-21T01:52:03.369Z,1018.27
2019-02-21T01:53:03.351Z,1018.27
2019-02-21T01:54:03.359Z,1018.29
2019-02-21T01:55:03.390Z,1018.25
2019-02-21T01:56:03.400Z,1018.26
2019-02-21T01:57:03.302Z,1018.23
2019-02-21T01:58:03.307Z,1018.23
2019-02-21T01:59:03.287Z,1018.18
2019-02-21T02:00:03.283Z,1018.21
2019-02-21T02:01:08.646Z,1018.24
2019-02-21T02:02:04.261Z,1018.26
2019-02-21T02:03:03.250Z,1018.25
2019-02-21T02:04:03.249Z,1018.26
2019-02-21T02:05:03.222Z,1018.37
2019-02-21T02:06:03.202Z,1018.35
2019-02-21T02:07:03.211Z,1018.32
2019-02-21T02:08:03.213Z,1018.40
2019-02-21T02:09:03.176Z,1018.27
2019-02-21T02:10:03.168Z,1018.28
2019-02-21T02:11:03.155Z,1018.28
2019-02-21T02:12:03.163Z,1018.32
2019-02-21T02:13:03.148Z,1018.34
2019-02-21T02:14:03.146Z,1018.36
2019-02-21T02:15:03.118Z,1018.40
2019-02-21T02:16:03.095Z,1018.38
2019-02-21T02:17:03.127Z,1018.34
2019-02-21T02:18:03.074Z,1018.33
2019-02-21T02:19:03.079Z,1018.34
2019-02-21T02:20:03.068Z,1018.35
2019-02-21T02:21:03.060Z,1018.35
2019-02-21T02:22:03.037Z,1018.37
2019-02-21T02:23:03.068Z,1018.37
2019-02-21T02:24:03.034Z,1018.35
2019-02-21T02:25:03.007Z,1018.35
2019-02-21T02:26:02.993Z,1018.33
2019-02-21T02:27:02.986Z,1018.42
2019-02-21T02:28:02.974Z,1018.42
2019-02-21T02:29:02.986Z,1018.41
2019-02-21T02:30:02.964Z,1018.39
2019-02-21T02:31:02.971Z,1018.40
2019-02-21T02:32:02.927Z,1018.40
2019-02-21T02:33:02.921Z,1018.45
2019-02-21T02:34:02.907Z,1018.39
2019-02-21T02:35:02.914Z,1018.37
2019-02-21T02:36:02.923Z,1018.37
2019-02-21T02:37:02.902Z,1018.35
2019-02-21T02:38:02.862Z,1018.33
2019-02-21T02:39:02.845Z,1018.53
2019-02-21T02:40:02.868Z,1018.36
2019-02-21T02:41:02.831Z,1018.31
2019-02-21T02:42:02.822Z,1018.29
2019-02-21T02:43:02.837Z,1018.32
2019-02-21T02:44:02.795Z,1018.32
2019-02-21T02:45:02.781Z,1018.32
2019-02-21T02:46:02.800Z,1018.33
2019-02-21T02:47:02.761Z,1018.45
2019-02-21T02:48:02.760Z,1018.36
2019-02-21T02:49:02.745Z,1018.32
2019-02-21T02:50:02.729Z,1018.35
2019-02-21T02:51:02.741Z,1018.40
2019-02-21T02:52:02.699Z,1018.35
2019-02-21T02:53:02.705Z,1018.36
2019-02-21T02:54:02.726Z,1018.38
2019-02-21T02:55:02.683Z,1018.36
2019-02-21T02:56:02.848Z,1018.32
2019-02-21T02:57:02.684Z,1018.32
2019-02-21T02:58:02.664Z,1018.34
2019-02-21T02:59:02.644Z,1018.33
2019-02-21T03:00:02.619Z,1018.39
2019-02-21T03:01:02.614Z,1018.37
2019-02-21T03:02:02.632Z,1018.39
2019-02-21T03:03:02.642Z,1018.41
2019-02-21T03:04:02.591Z,1018.42
2019-02-21T03:05:02.623Z,1018.43
2019-02-21T03:06:02.555Z,1018.35
2019-02-21T03:07:02.541Z,1018.39
2019-02-21T03:08:02.560Z,1018.30
2019-02-21T03:09:02.523Z,1018.36
2019-02-21T03:10:02.504Z,1018.37
2019-02-21T03:11:02.508Z,1018.39
2019-02-21T03:12:02.485Z,1018.38
2019-02-21T03:13:02.473Z,1018.37
2019-02-21T03:14:02.496Z,1018.46
2019-02-21T03:15:02.470Z,1018.41
2019-02-21T03:16:02.500Z,1018.35
2019-02-21T03:17:02.437Z,1018.40
2019-02-21T03:18:02.428Z,1018.37
2019-02-21T03:19:02.418Z,1018.39
2019-02-21T03:20:02.434Z,1018.36
2019-02-21T03:21:02.429Z,1018.48
2019-02-21T03:22:02.378Z,1018.43
2019-02-21T03:23:02.361Z,1018.36
2019-02-21T03:24:02.351Z,1018.38
2019-02-21T03:25:02.368Z,1018.36
2019-02-21T03:26:02.360Z,1018.45
2019-02-21T03:27:02.318Z,1018.33
2019-02-21T03:28:02.323Z,1018.42
2019-02-21T03:29:02.301Z,1018.35
2019-02-21T03:30:02.330Z,1018.45
2019-02-21T03:31:02.313Z,1018.32
2019-02-21T03:32:02.266Z,1018.31
2019-02-21T03:33:02.285Z,1018.38
2019-02-21T03:34:02.371Z,1018.48
2019-02-21T03:35:02.229Z,1018.39
2019-02-21T03:36:02.230Z,1018.36
2019-02-21T03:37:02.243Z,1018.33
2019-02-21T03:38:02.236Z,1018.41
2019-02-21T03:39:02.199Z,1018.37
2019-02-21T03:40:02.200Z,1018.34
2019-02-21T03:41:02.173Z,1018.43
2019-02-21T03:42:02.157Z,1018.29
2019-02-21T03:43:02.165Z,1018.30
2019-02-21T03:44:02.139Z,1018.34
2019-02-21T03:45:02.142Z,1018.30
2019-02-21T03:46:02.125Z,1018.33
2019-02-21T03:47:02.105Z,1018.37
2019-02-21T03:48:02.116Z,1018.34
2019-02-21T03:49:02.086Z,1018.42
2019-02-21T03:50:02.073Z,1018.37
2019-02-21T03:51:02.095Z,1018.36
2019-02-21T03:52:02.051Z,1018.37
2019-02-21T03:53:02.042Z,1018.38
2019-02-21T03:54:02.234Z,1018.40
2019-02-21T03:55:02.087Z,1018.38
2019-02-21T03:56:02.011Z,1018.37
2019-02-21T03:57:02.014Z,1018.47
2019-02-21T03:58:01.998Z,1018.43
2019-02-21T03:59:02.034Z,1018.42
2019-02-21T04:00:01.978Z,1018.48
2019-02-21T04:01:01.962Z,1018.50
2019-02-21T04:02:05.145Z,1018.49
2019-02-21T04:03:01.952Z,1018.46
2019-02-21T04:04:01.917Z,1018.42
2019-02-21T04:05:01.918Z,1018.44
2019-02-21T04:06:01.988Z,1018.46
2019-02-21T04:07:01.897Z,1018.41
2019-02-21T04:08:01.883Z,1018.55
2019-02-21T04:09:01.854Z,1018.45
2019-02-21T04:10:01.871Z,1018.42
2019-02-21T04:11:01.868Z,1018.48
2019-02-21T04:12:01.837Z,1018.44
2019-02-21T04:13:01.832Z,1018.47
2019-02-21T04:14:01.825Z,1018.45
2019-02-21T04:15:01.815Z,1018.40
2019-02-21T04:16:01.811Z,1018.42
2019-02-21T04:17:01.775Z,1018.46
2019-02-21T04:18:01.783Z,1018.49
2019-02-21T04:19:01.761Z,1018.44
2019-02-21T04:20:01.737Z,1018.49
2019-02-21T04:21:01.783Z,1018.48
2019-02-21T04:22:01.751Z,1018.45
2019-02-21T04:23:01.719Z,1018.41
2019-02-21T04:24:01.703Z,1018.44
2019-02-21T04:25:01.700Z,1018.38
2019-02-21T04:26:01.678Z,1018.40
2019-02-21T04:27:01.668Z,1018.45
2019-02-21T04:28:01.677Z,1018.35
2019-02-21T04:29:01.667Z,1018.32
2019-02-21T04:30:01.631Z,1018.34
2019-02-21T04:31:01.646Z,1018.31
2019-02-21T04:32:01.612Z,1018.34
2019-02-21T04:33:01.640Z,1018.27
2019-02-21T04:34:01.596Z,1018.32
2019-02-21T04:35:01.577Z,1018.33
2019-02-21T04:36:01.584Z,1018.28
2019-02-21T04:37:01.553Z,1018.23
2019-02-21T04:38:01.591Z,1018.25
2019-02-21T04:39:01.562Z,1018.25
2019-02-21T04:40:01.541Z,1018.21
2019-02-21T04:41:01.515Z,1018.14
2019-02-21T04:42:01.508Z,1018.05
2019-02-21T04:43:01.590Z,1018.19
2019-02-21T04:44:03.784Z,1018.24
2019-02-21T04:45:01.472Z,1018.26
2019-02-21T04:46:01.472Z,1018.19
2019-02-21T04:47:01.450Z,1018.19
2019-02-21T04:48:01.459Z,1018.17
2019-02-21T04:49:01.469Z,1018.25
2019-02-21T04:50:01.417Z,1018.22
2019-02-21T04:51:01.407Z,1018.18
2019-02-21T04:52:01.397Z,1018.26
2019-02-21T04:53:01.396Z,1018.17
2019-02-21T04:54:01.388Z,1018.28
2019-02-21T04:55:01.362Z,1018.17
2019-02-21T04:56:01.342Z,1018.16
2019-02-21T04:57:01.351Z,1018.16
2019-02-21T04:58:01.322Z,1018.18
2019-02-21T04:59:01.335Z,1018.16
2019-02-21T05:00:01.319Z,1018.22
2019-02-21T05:01:01.296Z,1018.25
2019-02-21T05:02:01.281Z,1018.21
2019-02-21T05:03:01.290Z,1018.26
2019-02-21T05:04:01.303Z,1018.25
2019-02-21T05:05:01.254Z,1018.32
2019-02-21T05:06:01.242Z,1018.27
2019-02-21T05:07:01.227Z,1018.34
2019-02-21T05:08:01.218Z,1018.33
2019-02-21T05:09:01.220Z,1018.31
2019-02-21T05:10:01.198Z,1018.27
2019-02-21T05:11:01.266Z,1018.29
2019-02-21T05:12:01.170Z,1018.27
2019-02-21T05:13:01.167Z,1018.23
2019-02-21T05:14:01.170Z,1018.26
2019-02-21T05:15:01.156Z,1018.27
2019-02-21T05:16:01.132Z,1018.38
2019-02-21T05:17:01.201Z,1018.28
2019-02-21T05:18:01.125Z,1018.41
2019-02-21T05:19:01.142Z,1018.25
2019-02-21T05:20:01.091Z,1018.23
2019-02-21T05:21:01.081Z,1018.18
2019-02-21T05:22:01.073Z,1018.20
2019-02-21T05:23:01.052Z,1018.24
2019-02-21T05:24:01.048Z,1018.27
2019-02-21T05:25:01.104Z,1018.15
2019-02-21T05:26:01.023Z,1018.12
2019-02-21T05:27:01.006Z,1018.22
2019-02-21T05:28:01.016Z,1018.21
2019-02-21T05:29:00.985Z,1018.20
2019-02-21T05:30:01.000Z,1018.22
2019-02-21T05:31:00.968Z,1018.20
2019-02-21T05:32:00.955Z,1018.26
2019-02-21T05:33:00.945Z,1018.25
2019-02-21T05:34:00.936Z,1018.20
2019-02-21T05:35:00.926Z,1018.17
2019-02-21T05:36:00.933Z,1018.15
2019-02-21T05:37:00.902Z,1018.15
2019-02-21T05:38:00.890Z,1018.21
2019-02-21T05:39:00.886Z,1018.18
2019-02-21T05:40:03.032Z,1018.15
2019-02-21T05:41:00.859Z,1018.16
2019-02-21T05:42:00.886Z,1018.13
2019-02-21T05:43:00.843Z,1018.12
2019-02-21T05:44:00.825Z,1018.11
2019-02-21T05:45:00.868Z,1018.12
2019-02-21T05:46:00.803Z,1018.19
2019-02-21T05:47:00.790Z,1018.21
2019-02-21T05:48:01.308Z,1018.17
2019-02-21T05:49:00.772Z,1018.14
2019-02-21T05:50:00.780Z,1018.16
2019-02-21T05:51:00.751Z,1018.16
2019-02-21T05:52:00.741Z,1018.19
2019-02-21T05:53:00.725Z,1018.23
2019-02-21T05:54:00.760Z,1018.13
2019-02-21T05:55:00.702Z,1018.15
2019-02-21T05:56:00.703Z,1018.14
2019-02-21T05:57:00.693Z,1018.13
2019-02-21T05:58:00.671Z,1018.16
2019-02-21T05:59:00.661Z,1018.15
2019-02-21T06:00:00.683Z,1018.13
2019-02-21T06:01:00.664Z,1018.18
2019-02-21T06:02:00.645Z,1018.21
2019-02-21T06:03:00.632Z,1018.23
2019-02-21T06:04:00.611Z,1018.20
2019-02-21T06:05:00.598Z,1018.21
2019-02-21T06:06:00.667Z,1018.22
2019-02-21T06:07:00.574Z,1018.27
2019-02-21T06:08:00.567Z,1018.19
2019-02-21T06:09:00.591Z,1018.30
2019-02-21T06:10:00.551Z,1018.23
2019-02-21T06:11:00.536Z,1018.25
2019-02-21T06:12:00.541Z,1018.23
2019-02-21T06:13:00.510Z,1018.29
2019-02-21T06:14:00.511Z,1018.19
2019-02-21T06:15:00.486Z,1018.16
2019-02-21T06:16:00.481Z,1018.15
2019-02-21T06:17:00.482Z,1018.30
2019-02-21T06:18:00.486Z,1018.17
2019-02-21T06:19:00.444Z,1018.15
2019-02-21T06:20:00.447Z,1018.12
2019-02-21T06:21:00.425Z,1018.19
2019-02-21T06:22:10.157Z,1018.18
2019-02-21T06:23:01.434Z,1018.14
2019-02-21T06:24:00.388Z,1018.17
2019-02-21T06:25:00.384Z,1018.16
2019-02-21T06:26:00.390Z,1018.15
2019-02-21T06:27:00.975Z,1018.13
2019-02-21T06:28:00.375Z,1018.20
2019-02-21T06:29:00.361Z,1018.19
2019-02-21T06:30:00.663Z,1018.21
2019-02-21T06:31:00.323Z,1018.22
2019-02-21T06:32:00.315Z,1018.23
2019-02-21T06:33:05.164Z,1018.28
2019-02-21T06:34:01.314Z,1018.24
2019-02-21T06:35:02.690Z,1018.22
2019-02-21T06:36:00.256Z,1018.26
2019-02-21T06:37:00.262Z,1018.27
2019-02-21T06:38:00.237Z,1018.36
2019-02-21T06:39:00.224Z,1018.35
2019-02-21T06:40:00.259Z,1018.34
2019-02-21T06:41:00.224Z,1018.29
2019-02-21T06:42:00.517Z,1018.30
2019-02-21T06:43:00.291Z,1018.31
2019-02-21T06:44:00.174Z,1018.36
2019-02-21T06:45:00.270Z,1018.26
2019-02-21T06:46:00.173Z,1018.36
2019-02-21T06:47:00.188Z,1018.35
2019-02-21T06:48:00.131Z,1018.42
2019-02-21T06:49:00.137Z,1018.44
2019-02-21T06:50:00.320Z,1018.43
2019-02-21T06:51:00.122Z,1018.37
2019-02-21T06:52:00.115Z,1018.39
2019-02-21T06:53:00.067Z,1018.51
2019-02-21T06:54:00.069Z,1018.51
2019-02-21T06:55:02.272Z,1018.50
2019-02-21T06:56:00.048Z,1018.50
2019-02-21T06:57:00.098Z,1018.50
2019-02-21T06:58:00.021Z,1018.52
2019-02-21T06:59:00.054Z,1018.50
2019-02-21T07:00:00.007Z,1018.56
2019-02-21T07:01:00.003Z,1018.59
2019-02-21T07:02:00.005Z,1018.60
2019-02-21T07:02:59.983Z,1018.52
2019-02-21T07:04:01.845Z,1018.52
2019-02-21T07:04:59.947Z,1018.59
2019-02-21T07:05:59.956Z,1018.47
2019-02-21T07:06:59.926Z,1018.57
2019-02-21T07:07:59.904Z,1018.51
2019-02-21T07:09:00.051Z,1018.61
2019-02-21T07:09:59.890Z,1018.61
2019-02-21T07:11:06.191Z,1018.54
2019-02-21T07:12:00.874Z,1018.63
2019-02-21T07:12:59.857Z,1018.63
2019-02-21T07:13:59.904Z,1018.66
2019-02-21T07:14:59.855Z,1018.72
2019-02-21T07:15:59.870Z,1018.66
2019-02-21T07:16:59.867Z,1018.61
2019-02-21T07:17:59.898Z,1018.58
2019-02-21T07:18:59.853Z,1018.56
2019-02-21T07:19:59.793Z,1018.64
2019-02-21T07:20:59.781Z,1018.67
2019-02-21T07:21:59.763Z,1018.68
2019-02-21T07:22:59.768Z,1018.60
2019-02-21T07:23:59.736Z,1018.61
2019-02-21T07:24:59.745Z,1018.60
2019-02-21T07:25:59.712Z,1018.67
2019-02-21T07:26:59.715Z,1018.74
2019-02-21T07:28:10.962Z,1018.74
2019-02-21T07:29:00.678Z,1018.73
2019-02-21T07:29:59.703Z,1018.68
2019-02-21T07:30:59.782Z,1018.68
2019-02-21T07:31:59.650Z,1018.71
2019-02-21T07:32:59.647Z,1018.69
2019-02-21T07:34:01.646Z,1018.70
2019-02-21T07:34:59.661Z,1018.79
2019-02-21T07:36:00.186Z,1018.76
2019-02-21T07:36:59.596Z,1018.76
2019-02-21T07:37:59.593Z,1018.77
2019-02-21T07:39:13.890Z,1018.80
2019-02-21T07:40:00.567Z,1018.90
2019-02-21T07:40:59.711Z,1018.83
2019-02-21T07:41:59.535Z,1018.83
2019-02-21T07:42:59.539Z,1018.82
2019-02-21T07:43:59.531Z,1018.86
2019-02-21T07:44:59.827Z,1018.94
2019-02-21T07:45:59.519Z,1018.73
2019-02-21T07:46:59.529Z,1018.83
2019-02-21T07:47:59.485Z,1018.81
2019-02-21T07:48:59.459Z,1018.77
2019-02-21T07:49:59.459Z,1018.78
2019-02-21T07:50:59.514Z,1018.79
2019-02-21T07:51:59.438Z,1018.81
2019-02-21T07:53:02.308Z,1018.77
2019-02-21T07:53:59.404Z,1018.77
2019-02-21T07:55:02.129Z,1018.88
2019-02-21T07:55:59.407Z,1018.86
2019-02-21T07:57:01.780Z,1018.89
2019-02-21T07:57:59.429Z,1018.86
2019-02-21T07:58:59.356Z,1018.96
2019-02-21T07:59:59.367Z,1019.04
2019-02-21T08:00:59.355Z,1019.00
2019-02-21T08:01:59.367Z,1019.06
2019-02-21T08:02:59.310Z,1019.19
2019-02-21T08:03:59.301Z,1019.23
2019-02-21T08:05:01.882Z,1018.99
2019-02-21T08:05:59.298Z,1019.06
2019-02-21T08:06:59.287Z,1019.13
2019-02-21T08:07:59.259Z,1019.07
2019-02-21T08:08:59.306Z,1019.13
2019-02-21T08:09:59.310Z,1019.17
2019-02-21T08:10:59.289Z,1019.21
2019-02-21T08:11:59.281Z,1019.19
2019-02-21T08:12:59.196Z,1019.27
2019-02-21T08:13:59.190Z,1019.26
2019-02-21T08:14:59.216Z,1019.35
2019-02-21T08:15:59.176Z,1019.26
2019-02-21T08:16:59.169Z,1019.28
2019-02-21T08:17:59.220Z,1019.30
2019-02-21T08:18:59.126Z,1019.27
2019-02-21T08:20:07.962Z,1019.30
2019-02-21T08:21:00.108Z,1019.25
2019-02-21T08:22:00.252Z,1019.27
2019-02-21T08:22:59.122Z,1019.51
2019-02-21T08:23:59.354Z,1019.29
2019-02-21T08:24:59.064Z,1019.25
2019-02-21T08:25:59.070Z,1019.31
2019-02-21T08:26:59.056Z,1019.28
2019-02-21T08:27:59.054Z,1019.31
2019-02-21T08:28:59.031Z,1019.31
2019-02-21T08:29:59.017Z,1019.29
2019-02-21T08:30:59.000Z,1019.23
2019-02-21T08:31:59.000Z,1019.23
2019-02-21T08:32:59.017Z,1019.42
2019-02-21T08:33:59.139Z,1019.19
2019-02-21T08:34:58.970Z,1019.43
2019-02-21T08:35:58.961Z,1019.35
2019-02-21T08:36:58.948Z,1019.34
2019-02-21T08:37:58.942Z,1019.40
2019-02-21T08:38:58.916Z,1019.30
2019-02-21T08:39:58.928Z,1019.37
2019-02-21T08:40:58.885Z,1019.35
2019-02-21T08:41:58.882Z,1019.28
2019-02-21T08:42:58.894Z,1019.47
2019-02-21T08:43:58.918Z,1019.44
2019-02-21T08:44:58.856Z,1019.53
2019-02-21T08:45:58.909Z,1019.26
2019-02-21T08:46:58.819Z,1019.44
2019-02-21T08:47:58.820Z,1019.30
2019-02-21T08:48:58.815Z,1019.36
2019-02-21T08:49:59.739Z,1019.50
2019-02-21T08:50:58.823Z,1019.34
2019-02-21T08:51:58.825Z,1019.37
2019-02-21T08:53:00.875Z,1019.36
2019-02-21T08:53:58.747Z,1019.54
2019-02-21T08:55:00.509Z,1019.37
2019-02-21T08:55:58.768Z,1019.36
2019-02-21T08:56:58.742Z,1019.38
2019-02-21T08:57:58.707Z,1019.52
2019-02-21T08:58:58.687Z,1019.32
2019-02-21T08:59:58.684Z,1019.27
2019-02-21T09:00:58.686Z,1019.27
2019-02-21T09:01:58.697Z,1019.25
2019-02-21T09:02:58.655Z,1019.30
2019-02-21T09:04:09.555Z,1019.27
2019-02-21T09:04:59.641Z,1019.45
2019-02-21T09:05:58.627Z,1019.43
2019-02-21T09:06:58.635Z,1019.33
2019-02-21T09:07:58.592Z,1019.28
2019-02-21T09:08:58.597Z,1019.28
2019-02-21T09:09:58.572Z,1019.32
2019-02-21T09:10:58.574Z,1019.33
2019-02-21T09:11:58.566Z,1019.42
2019-02-21T09:12:58.581Z,1019.49
2019-02-21T09:13:58.534Z,1019.37
2019-02-21T09:14:58.528Z,1019.46
2019-02-21T09:15:58.512Z,1019.43
2019-02-21T09:16:58.498Z,1019.35
2019-02-21T09:17:58.498Z,1019.34
2019-02-21T09:18:58.516Z,1019.31
2019-02-21T09:19:58.461Z,1019.29
2019-02-21T09:20:58.450Z,1019.14
2019-02-21T09:21:58.436Z,1019.26
2019-02-21T09:22:58.427Z,1019.15
2019-02-21T09:23:58.450Z,1019.15
2019-02-21T09:24:58.433Z,1019.16
2019-02-21T09:25:58.405Z,1019.24
2019-02-21T09:27:00.263Z,1019.24
2019-02-21T09:27:59.852Z,1019.24
2019-02-21T09:28:58.792Z,1019.28
2019-02-21T09:29:58.375Z,1019.19
2019-02-21T09:30:58.339Z,1019.15
2019-02-21T09:31:58.338Z,1019.24
2019-02-21T09:32:58.331Z,1019.23
2019-02-21T09:33:58.314Z,1019.23
2019-02-21T09:34:58.829Z,1019.21
2019-02-21T09:35:58.320Z,1019.21
2019-02-21T09:36:58.279Z,1019.20
2019-02-21T09:37:58.333Z,1019.21
2019-02-21T09:38:58.259Z,1019.28
2019-02-21T09:39:58.260Z,1019.25
2019-02-21T09:40:58.249Z,1019.15
2019-02-21T09:41:58.261Z,1019.12
2019-02-21T09:42:58.221Z,1019.00
2019-02-21T09:43:58.326Z,1019.04
2019-02-21T09:44:58.193Z,1019.10
2019-02-21T09:45:58.197Z,1019.11
2019-02-21T09:46:58.232Z,1019.05
2019-02-21T09:47:58.152Z,1019.15
2019-02-21T09:48:58.157Z,1019.05
2019-02-21T09:49:58.161Z,1019.03
2019-02-21T09:50:58.166Z,1019.02
2019-02-21T09:51:58.115Z,1018.97
2019-02-21T09:52:58.125Z,1019.06
2019-02-21T09:53:58.089Z,1019.11
2019-02-21T09:54:58.080Z,1019.11
2019-02-21T09:55:58.078Z,1019.05
2019-02-21T09:56:58.060Z,1019.26
2019-02-21T09:57:58.063Z,1019.14
2019-02-21T09:58:58.040Z,1019.04
2019-02-21T09:59:58.030Z,1019.07
2019-02-21T10:00:58.023Z,1019.03
2019-02-21T10:01:58.008Z,1019.16
2019-02-21T10:02:58.023Z,1019.22
2019-02-21T10:03:57.997Z,1019.13
2019-02-21T10:05:04.969Z,1019.15
2019-02-21T10:05:59.652Z,1019.24
2019-02-21T10:06:57.953Z,1019.39
2019-02-21T10:07:57.984Z,1019.30
2019-02-21T10:08:57.945Z,1019.19
2019-02-21T10:09:57.940Z,1019.19
2019-02-21T10:11:00.591Z,1019.32
2019-02-21T10:11:59.082Z,1019.28
2019-02-21T10:12:57.927Z,1019.22
2019-02-21T10:13:57.874Z,1019.15
2019-02-21T10:14:57.867Z,1019.06
2019-02-21T10:15:57.869Z,1019.15
2019-02-21T10:16:57.854Z,1019.13
2019-02-21T10:17:57.871Z,1019.23
2019-02-21T10:18:57.842Z,1019.12
2019-02-21T10:19:57.821Z,1019.23
2019-02-21T10:20:57.835Z,1019.13
2019-02-21T10:21:57.805Z,1019.11
2019-02-21T10:22:57.824Z,1019.09
2019-02-21T10:23:57.785Z,1019.16
2019-02-21T10:24:57.767Z,1019.17
2019-02-21T10:25:57.749Z,1019.18
2019-02-21T10:26:57.748Z,1019.32
2019-02-21T10:27:59.065Z,1019.22
2019-02-21T10:28:57.758Z,1019.25
2019-02-21T10:29:57.721Z,1019.19
2019-02-21T10:30:57.749Z,1019.13
2019-02-21T10:31:57.712Z,1019.24
2019-02-21T10:32:57.682Z,1019.20
2019-02-21T10:33:57.702Z,1019.13
2019-02-21T10:34:57.671Z,1019.40
2019-02-21T10:35:57.650Z,1019.12
2019-02-21T10:36:57.632Z,1019.35
2019-02-21T10:37:57.689Z,1019.17
2019-02-21T10:38:57.657Z,1019.24
2019-02-21T10:39:57.632Z,1019.03
2019-02-21T10:40:57.632Z,1019.10
2019-02-21T10:41:57.592Z,1019.13
2019-02-21T10:42:57.579Z,1019.31
2019-02-21T10:43:57.572Z,1019.31
2019-02-21T10:44:57.566Z,1019.47
2019-02-21T10:45:57.548Z,1019.25
2019-02-21T10:46:57.535Z,1019.34
2019-02-21T10:47:57.523Z,1019.30
2019-02-21T10:48:57.540Z,1019.29
2019-02-21T10:49:57.519Z,1019.16
2019-02-21T10:50:57.512Z,1019.17
2019-02-21T10:51:57.485Z,1019.35
2019-02-21T10:52:57.473Z,1019.31
2019-02-21T10:53:57.476Z,1019.46
2019-02-21T10:54:57.489Z,1019.29
2019-02-21T10:55:57.448Z,1019.32
2019-02-21T10:56:57.440Z,1019.27
2019-02-21T10:57:57.412Z,1019.29
2019-02-21T10:58:57.410Z,1019.21
2019-02-21T10:59:57.506Z,1019.22
2019-02-21T11:00:57.401Z,1019.33
2019-02-21T11:01:57.375Z,1019.28
2019-02-21T11:02:57.365Z,1019.29
2019-02-21T11:03:57.357Z,1019.23
2019-02-21T11:04:57.346Z,1019.23
2019-02-21T11:05:57.354Z,1019.23
2019-02-21T11:06:57.353Z,1019.25
2019-02-21T11:07:57.313Z,1019.40
2019-02-21T11:08:57.312Z,1019.36
2019-02-21T11:09:57.300Z,1019.36
2019-02-21T11:10:57.275Z,1019.36
2019-02-21T11:11:57.285Z,1019.46
2019-02-21T11:12:57.261Z,1019.37
2019-02-21T11:13:57.259Z,1019.34
2019-02-21T11:14:57.229Z,1019.46
2019-02-21T11:15:57.236Z,1019.47
2019-02-21T11:16:57.215Z,1019.42
2019-02-21T11:17:57.317Z,1019.51
2019-02-21T11:18:57.196Z,1019.40
2019-02-21T11:19:57.187Z,1019.34
2019-02-21T11:20:59.242Z,1019.24
2019-02-21T11:21:57.172Z,1019.38
2019-02-21T11:22:57.195Z,1019.46
2019-02-21T11:23:57.142Z,1019.43
2019-02-21T11:24:57.276Z,1019.21
2019-02-21T11:25:57.130Z,1019.17
2019-02-21T11:26:57.159Z,1019.13
2019-02-21T11:27:57.115Z,1019.19
2019-02-21T11:28:57.123Z,1019.17
2019-02-21T11:29:57.088Z,1019.23
2019-02-21T11:30:57.076Z,1019.19
2019-02-21T11:31:57.070Z,1019.29
2019-02-21T11:32:57.038Z,1019.40
2019-02-21T11:33:57.081Z,1019.27
2019-02-21T11:35:05.731Z,1019.28
2019-02-21T11:35:58.015Z,1019.35
2019-02-21T11:36:57.003Z,1019.30
2019-02-21T11:37:56.985Z,1019.37
2019-02-21T11:38:56.976Z,1019.30
2019-02-21T11:39:56.990Z,1019.47
2019-02-21T11:40:56.965Z,1019.40
2019-02-21T11:41:56.958Z,1019.34
2019-02-21T11:42:56.937Z,1019.24
2019-02-21T11:43:56.935Z,1019.38
2019-02-21T11:44:56.928Z,1019.50
2019-02-21T11:45:57.480Z,1019.30
2019-02-21T11:46:56.903Z,1019.44
2019-02-21T11:47:56.878Z,1019.35
2019-02-21T11:48:56.879Z,1019.27
2019-02-21T11:49:56.894Z,1019.25
2019-02-21T11:50:56.867Z,1019.25
2019-02-21T11:51:56.848Z,1019.33
2019-02-21T11:52:56.876Z,1019.22
2019-02-21T11:53:56.829Z,1019.34
2019-02-21T11:54:56.820Z,1019.18
2019-02-21T11:55:56.834Z,1019.13
2019-02-21T11:56:56.805Z,1019.17
2019-02-21T11:57:56.786Z,1019.34
2019-02-21T11:58:56.771Z,1019.23
2019-02-21T11:59:56.759Z,1019.32
2019-02-21T12:00:57.236Z,1019.28
2019-02-21T12:01:56.741Z,1019.31
2019-02-21T12:02:56.758Z,1019.36
2019-02-21T12:03:56.715Z,1019.47
2019-02-21T12:04:56.718Z,1019.44